Time;durP1;ratioP1;P1;durP2;ratioP2;P2;SDS_P1;SDS_P2;PMS_P1;PMS_P2;Temp;Humidity;BMP_temperature;BMP_pressure;BME280_temperature;BME280_humidity;BME280_pressure;Samples;Min_cycle;Max_cycle;Signal;HPM_P1;HPM_P2
2023/10/24 00:00:25;;;;;;;27.03;9.13;;;;;;;18.14;79.95;99545.78;5072310;28;20532;-64
2023/10/24 00:02:52;;;;;;;25.60;9.37;;;;;;;18.15;79.72;99539.34;5071687;28;20741;-64
2023/10/24 00:05:19;;;;;;;31.47;9.03;;;;;;;18.14;79.50;99549.31;5071477;28;20259;-64
2023/10/24 00:07:46;;;;;;;29.97;8.73;;;;;;;18.16;79.60;99543.66;5072011;28;20265;-64
2023/10/24 00:10:13;;;;;;;37.37;9.63;;;;;;;18.17;79.65;99539.94;5071975;28;20195;-64
2023/10/24 00:12:40;;;;;;;23.57;8.20;;;;;;;18.16;79.56;99533.72;5072028;28;20200;-63
2023/10/24 00:15:07;;;;;;;28.53;9.33;;;;;;;18.14;79.70;99524.28;5071629;28;20694;-64
2023/10/24 00:17:35;;;;;;;29.00;8.67;;;;;;;18.14;79.80;99533.19;5071918;28;20249;-64
2023/10/24 00:20:02;;;;;;;20.47;8.33;;;;;;;18.12;79.64;99521.00;5072017;28;20214;-64
2023/10/24 00:22:29;;;;;;;23.60;8.07;;;;;;;18.12;79.57;99526.38;5072156;28;20197;-64
2023/10/24 00:24:55;;;;;;;21.60;7.77;;;;;;;18.11;79.86;99525.59;5071658;28;20196;-64
2023/10/24 00:27:22;;;;;;;22.50;8.30;;;;;;;18.09;79.76;99521.50;5071940;28;20232;-64
2023/10/24 00:29:49;;;;;;;22.17;8.10;;;;;;;18.06;80.04;99527.38;5071883;28;20249;-64
2023/10/24 00:32:15;;;;;;;20.37;8.17;;;;;;;18.02;79.85;99527.06;5071902;28;20192;-65
2023/10/24 00:34:43;;;;;;;24.70;9.27;;;;;;;18.00;80.17;99526.47;5071352;28;20672;-65
2023/10/24 00:37:10;;;;;;;22.07;8.73;;;;;;;18.00;80.20;99526.47;5071798;28;20253;-65
2023/10/24 00:39:37;;;;;;;25.20;8.50;;;;;;;18.00;80.11;99534.53;5071421;28;20714;-65
2023/10/24 00:42:05;;;;;;;21.40;8.23;;;;;;;18.00;80.03;99528.31;5071754;28;20241;-65
2023/10/24 00:44:32;;;;;;;21.00;7.80;;;;;;;17.98;80.49;99525.06;5071781;28;20191;-65
2023/10/24 00:47:00;;;;;;;30.60;8.50;;;;;;;17.97;80.84;99528.84;5071457;28;20632;-65
2023/10/24 00:49:26;;;;;;;22.80;7.97;;;;;;;17.97;80.97;99528.84;5071330;28;20619;-65
2023/10/24 00:51:56;;;;;;;16.43;8.13;;;;;;;17.96;81.08;99532.56;5071313;28;20250;-65
2023/10/24 00:54:23;;;;;;;15.13;7.60;;;;;;;17.92;81.27;99512.63;5071637;28;20193;-64
2023/10/24 00:56:52;;;;;;;19.33;7.20;;;;;;;17.88;81.26;99519.53;5071331;28;20280;-64
2023/10/24 00:59:22;;;;;;;15.10;7.13;;;;;;;17.87;81.49;99520.56;5071578;28;20196;-64
2023/10/24 01:01:49;;;;;;;21.53;8.00;;;;;;;17.85;81.42;99525.38;5072048;28;20274;-64
2023/10/24 01:04:18;;;;;;;21.70;7.93;;;;;;;17.86;81.39;99524.31;5071174;28;20196;-65
2023/10/24 01:06:43;;;;;;;24.10;9.03;;;;;;;17.79;81.65;99526.34;5071647;28;20200;-65
2023/10/24 01:09:11;;;;;;;14.90;7.57;;;;;;;17.74;82.08;99523.56;5071429;28;20744;-65
2023/10/24 01:11:38;;;;;;;14.03;7.30;;;;;;;17.69;81.92;99520.78;5071515;28;20196;-65
2023/10/24 01:14:05;;;;;;;24.50;7.97;;;;;;;17.73;81.99;99521.94;5071381;28;20192;-65
2023/10/24 01:16:33;;;;;;;18.97;8.13;;;;;;;17.67;82.08;99512.97;5071221;28;20227;-65
2023/10/24 01:19:00;;;;;;;23.37;7.90;;;;;;;17.69;82.04;99521.63;5075416;28;20199;-64
2023/10/24 01:21:27;;;;;;;12.33;7.30;;;;;;;17.67;82.29;99528.25;5075503;28;20196;-64
2023/10/24 01:23:57;;;;;;;23.33;8.53;;;;;;;17.65;81.95;99525.84;5074786;28;20197;-65
2023/10/24 01:26:26;;;;;;;23.90;8.77;;;;;;;17.63;82.00;99519.88;5074608;28;20292;-65
2023/10/24 01:28:53;;;;;;;22.47;8.20;;;;;;;17.62;81.91;99523.63;5074421;28;20196;-65
2023/10/24 01:31:20;;;;;;;18.17;8.50;;;;;;;17.56;82.38;99526.47;5075305;28;20188;-64
2023/10/24 01:33:46;;;;;;;17.37;7.73;;;;;;;17.51;82.16;99529.84;5074932;28;20192;-64
2023/10/24 01:36:13;;;;;;;26.87;8.83;;;;;;;17.46;82.54;99528.94;5074751;28;20295;-64
2023/10/24 01:38:40;;;;;;;22.40;7.77;;;;;;;17.41;82.92;99523.47;5074629;28;20656;-64
2023/10/24 01:41:08;;;;;;;17.23;8.10;;;;;;;17.37;82.92;99523.13;5074671;28;20283;-64
2023/10/24 01:43:35;;;;;;;19.33;8.93;;;;;;;17.38;83.15;99526.59;5074770;28;20248;-64
2023/10/24 01:46:02;;;;;;;25.73;9.00;;;;;;;17.32;83.41;99519.50;5075068;28;20273;-65
2023/10/24 01:48:29;;;;;;;20.93;8.80;;;;;;;17.28;83.62;99521.88;5074786;28;20194;-64
2023/10/24 01:50:55;;;;;;;20.30;8.43;;;;;;;17.16;83.65;99514.88;5074526;28;20795;-65
2023/10/24 01:53:23;;;;;;;17.93;7.27;;;;;;;17.20;84.36;99521.41;5074692;28;20204;-65
2023/10/24 01:55:50;;;;;;;18.80;8.93;;;;;;;17.18;84.31;99528.88;5074659;28;20226;-64
2023/10/24 01:58:18;;;;;;;19.83;8.63;;;;;;;17.16;84.41;99520.25;5074737;28;20705;-64
2023/10/24 02:00:44;;;;;;;23.77;8.67;;;;;;;17.12;84.29;99524.47;5074285;28;20229;-64
2023/10/24 02:03:11;;;;;;;22.27;8.37;;;;;;;17.09;83.96;99530.31;5074639;28;20190;-65
2023/10/24 02:05:39;;;;;;;25.93;8.67;;;;;;;17.04;84.59;99516.78;5074138;28;20248;-64
2023/10/24 02:08:05;;;;;;;32.80;9.73;;;;;;;17.05;84.63;99529.16;5074601;28;20198;-64
2023/10/24 02:10:32;;;;;;;22.13;9.23;;;;;;;17.06;84.56;99520.06;5074120;28;20656;-64
2023/10/24 02:12:59;;;;;;;14.30;7.90;;;;;;;17.07;84.77;99521.69;5074104;28;20241;-65
2023/10/24 02:15:27;;;;;;;22.53;9.80;;;;;;;16.99;84.97;99511.31;5074329;28;20651;-64
2023/10/24 02:17:53;;;;;;;18.03;8.97;;;;;;;17.00;85.68;99529.03;5074349;28;20244;-64
2023/10/24 02:20:20;;;;;;;18.30;9.00;;;;;;;17.01;85.55;99523.44;5073976;28;20200;-64
2023/10/24 02:22:48;;;;;;;18.57;8.67;;;;;;;16.93;86.00;99531.84;5074317;28;20192;-64
2023/10/24 02:25:15;;;;;;;20.67;8.87;;;;;;;16.86;86.32;99530.34;5073854;28;20291;-64
2023/10/24 02:27:42;;;;;;;22.80;8.67;;;;;;;16.84;86.00;99532.44;5074188;28;20223;-65
2023/10/24 02:30:09;;;;;;;20.90;8.37;;;;;;;16.86;86.01;99530.34;5072844;28;20733;-64
2023/10/24 02:32:38;;;;;;;16.23;8.20;;;;;;;16.86;85.96;99531.16;5074127;28;20202;-64
2023/10/24 02:35:06;;;;;;;20.43;8.87;;;;;;;16.84;85.89;99532.44;5073617;28;20249;-65
2023/10/24 02:37:32;;;;;;;24.83;9.30;;;;;;;16.86;86.04;99535.72;5073959;28;20226;-65
2023/10/24 02:39:59;;;;;;;29.10;8.60;;;;;;;16.85;86.00;99534.06;5073597;28;20192;-65
2023/10/24 02:42:26;;;;;;;20.30;9.37;;;;;;;16.86;86.09;99541.09;5073592;28;20245;-65
2023/10/24 02:44:53;;;;;;;20.57;9.60;;;;;;;16.85;85.79;99550.16;5073803;28;20195;-65
2023/10/24 02:47:19;;;;;;;15.23;9.63;;;;;;;16.85;85.59;99556.38;5073599;28;20246;-65
2023/10/24 02:49:47;;;;;;;20.37;8.83;;;;;;;16.83;85.93;99547.75;5073555;28;20622;-66
2023/10/24 02:52:14;;;;;;;23.33;9.20;;;;;;;16.83;85.70;99546.91;5073431;28;20192;-65
2023/10/24 02:54:41;;;;;;;17.53;9.30;;;;;;;16.83;85.94;99554.97;5073342;28;20188;-64
2023/10/24 02:57:07;;;;;;;20.97;7.87;;;;;;;16.79;85.89;99545.75;5073274;28;20658;-64
2023/10/24 02:59:34;;;;;;;21.77;9.20;;;;;;;16.81;85.84;99544.47;5073526;28;20263;-65
2023/10/24 03:02:01;;;;;;;23.67;9.33;;;;;;;16.80;86.03;99547.38;5073228;28;20249;-65
2023/10/24 03:04:27;;;;;;;19.60;9.03;;;;;;;16.76;85.63;99555.09;5073547;28;20191;-65
2023/10/24 03:06:56;;;;;;;16.83;8.70;;;;;;;16.76;86.33;99551.59;5073388;28;20258;-64
2023/10/24 03:09:22;;;;;;;24.47;9.53;;;;;;;16.76;86.17;99547.03;5073415;28;20198;-65
2023/10/24 03:11:49;;;;;;;17.73;8.57;;;;;;;16.77;85.84;99553.22;5073454;28;20634;-64
2023/10/24 03:14:16;;;;;;;16.83;8.47;;;;;;;16.78;85.85;99550.28;5073231;28;20195;-65
2023/10/24 03:16:42;;;;;;;24.40;9.23;;;;;;;16.73;85.66;99530.59;5072974;28;20224;-64
2023/10/24 03:19:09;;;;;;;20.83;8.23;;;;;;;16.77;85.59;99532.56;5073001;28;20664;-65
2023/10/24 03:21:36;;;;;;;20.20;9.00;;;;;;;16.78;85.78;99538.75;5073044;28;20196;-64
2023/10/24 03:24:04;;;;;;;21.60;8.90;;;;;;;16.75;85.49;99545.41;5073157;28;20349;-64
2023/10/24 03:26:31;;;;;;;26.47;8.70;;;;;;;16.74;85.94;99542.97;5072698;28;20277;-65
2023/10/24 03:28:58;;;;;;;23.27;9.00;;;;;;;16.74;85.71;99542.97;5073053;28;20188;-65
2023/10/24 03:31:24;;;;;;;25.70;8.97;;;;;;;16.68;85.79;99538.53;5072633;28;20196;-66
2023/10/24 03:33:51;;;;;;;21.97;9.00;;;;;;;16.69;85.77;99542.81;5072950;28;20246;-65
2023/10/24 03:36:18;;;;;;;27.20;7.83;;;;;;;16.68;85.58;99547.41;5072094;28;20284;-65
2023/10/24 03:38:44;;;;;;;26.50;8.67;;;;;;;16.70;85.68;99552.53;5072073;28;20196;-65
2023/10/24 03:41:13;;;;;;;19.33;8.40;;;;;;;16.68;85.44;99550.06;5072402;28;20249;-65
2023/10/24 03:43:40;;;;;;;18.03;9.37;;;;;;;16.71;85.28;99559.53;5072193;28;20202;-65
2023/10/24 03:46:07;;;;;;;21.70;9.27;;;;;;;16.72;85.07;99561.97;5072190;28;20730;-65
2023/10/24 03:48:34;;;;;;;28.37;9.47;;;;;;;16.69;85.60;99562.44;5072456;28;20202;-65
2023/10/24 03:51:01;;;;;;;24.73;9.20;;;;;;;16.70;85.16;99563.25;5072406;28;20329;-64
2023/10/24 03:53:28;;;;;;;17.87;8.43;;;;;;;16.71;85.05;99564.88;5072122;28;20206;-64
2023/10/24 03:55:58;;;;;;;32.13;9.67;;;;;;;16.69;84.93;99567.78;5072343;28;20332;-64
2023/10/24 03:58:27;;;;;;;22.57;8.40;;;;;;;16.70;84.48;99557.91;5072539;28;20192;-65
2023/10/24 04:00:55;;;;;;;29.37;8.53;;;;;;;16.72;84.23;99571.88;5071977;28;20543;-65
2023/10/24 04:03:22;;;;;;;25.43;9.53;;;;;;;16.71;84.07;99560.34;5072350;28;20241;-64
2023/10/24 04:05:48;;;;;;;22.40;8.80;;;;;;;16.68;84.28;99554.63;5071926;28;20636;-65
2023/10/24 04:08:15;;;;;;;33.37;9.17;;;;;;;16.68;84.27;99559.97;5071891;28;20198;-65
2023/10/24 04:10:42;;;;;;;25.77;9.40;;;;;;;16.61;84.42;99553.94;5072193;28;20192;-65
2023/10/24 04:13:08;;;;;;;52.40;11.30;;;;;;;16.58;85.20;99559.75;5071905;28;20725;-65
2023/10/24 04:15:37;;;;;;;34.07;9.83;;;;;;;16.57;84.88;99558.13;5071940;28;20246;-65
2023/10/24 04:18:04;;;;;;;27.87;9.20;;;;;;;16.55;84.98;99562.91;5071660;28;20694;-65
2023/10/24 04:20:31;;;;;;;26.53;9.83;;;;;;;16.51;84.89;99564.41;5072003;28;20228;-65
2023/10/24 04:23:02;;;;;;;28.37;10.13;;;;;;;16.45;85.37;99576.06;5071598;28;20227;-65
2023/10/24 04:25:29;;;;;;;25.93;9.93;;;;;;;16.37;85.19;99565.66;5072092;28;20196;-66
2023/10/24 04:27:57;;;;;;;22.53;9.77;;;;;;;16.35;85.54;99571.25;5072137;28;20314;-65
2023/10/24 04:30:24;;;;;;;31.60;10.43;;;;;;;16.31;85.93;99575.44;5071493;28;20605;-64
2023/10/24 04:32:52;;;;;;;29.03;10.63;;;;;;;16.32;86.00;99573.56;5071282;28;20223;-65
2023/10/24 04:35:18;;;;;;;29.63;10.10;;;;;;;16.36;85.90;99580.09;5070968;28;20664;-65
2023/10/24 04:37:47;;;;;;;43.20;11.60;;;;;;;16.38;85.37;99580.69;5071206;28;20212;-65
2023/10/24 04:40:14;;;;;;;45.37;10.80;;;;;;;16.39;85.15;99577.78;5068781;28;20211;-65
2023/10/24 04:42:41;;;;;;;35.03;10.60;;;;;;;16.41;85.34;99585.63;5070903;28;20184;-65
2023/10/24 04:45:09;;;;;;;38.33;11.33;;;;;;;16.43;85.35;99599.59;5071163;28;20183;-65
2023/10/24 04:47:36;;;;;;;33.17;11.17;;;;;;;16.44;84.93;99595.88;5070988;28;20193;-64
2023/10/24 04:50:05;;;;;;;35.97;10.27;;;;;;;16.43;84.79;99599.59;5070904;28;20196;-65
2023/10/24 04:52:32;;;;;;;32.50;11.53;;;;;;;16.46;84.93;99604.53;5067942;28;20253;-64
2023/10/24 04:54:59;;;;;;;32.93;10.77;;;;;;;16.46;84.81;99607.19;5070916;28;20659;-65
2023/10/24 04:57:26;;;;;;;39.50;11.20;;;;;;;16.49;84.84;99607.53;5070966;28;20663;-65
2023/10/24 04:59:52;;;;;;;42.93;12.17;;;;;;;16.53;84.61;99615.97;5068200;28;20258;-65
2023/10/24 05:02:19;;;;;;;40.77;11.47;;;;;;;16.57;84.26;99625.19;5070769;28;20241;-64
2023/10/24 05:04:46;;;;;;;49.77;12.90;;;;;;;16.52;84.90;99623.19;5070671;28;20186;-65
2023/10/24 05:07:14;;;;;;;44.13;13.53;;;;;;;16.60;86.00;99627.38;5068064;28;20195;-67
2023/10/24 05:09:41;;;;;;;51.60;12.87;;;;;;;16.66;84.11;99632.63;5070404;28;20720;-65
2023/10/24 05:12:08;;;;;;;47.27;12.50;;;;;;;16.68;84.29;99633.22;5071261;28;20200;-64
2023/10/24 05:14:34;;;;;;;47.83;12.27;;;;;;;16.75;85.39;99630.44;5070727;28;20200;-64
2023/10/24 05:17:01;;;;;;;46.30;12.83;;;;;;;17.06;85.47;99643.53;5070784;28;20644;-65
2023/10/24 05:19:28;;;;;;;34.03;12.60;;;;;;;17.36;85.10;99650.34;5070959;28;20188;-64
2023/10/24 05:21:54;;;;;;;44.00;12.43;;;;;;;17.69;84.29;99655.13;5070874;28;20667;-65
2023/10/24 05:24:22;;;;;;;44.33;13.47;;;;;;;17.97;83.19;99652.47;5070744;28;20200;-65
2023/10/24 05:26:49;;;;;;;40.70;13.63;;;;;;;18.30;81.04;99669.50;5070475;28;20234;-65
2023/10/24 05:29:16;;;;;;;61.03;13.27;;;;;;;18.59;78.84;99670.31;5069885;28;20249;-64
2023/10/24 05:31:42;;;;;;;44.03;12.07;;;;;;;18.86;77.00;99674.81;5070330;28;20656;-65
2023/10/24 05:34:09;;;;;;;34.73;10.17;;;;;;;19.14;75.49;99682.78;5070380;28;20638;-64
2023/10/24 05:36:36;;;;;;;49.00;11.70;;;;;;;19.40;74.42;99686.72;5069986;28;20285;-64
2023/10/24 05:39:03;;;;;;;32.77;9.73;;;;;;;19.63;73.00;99697.25;5069979;28;20248;-64
2023/10/24 05:41:31;;;;;;;40.00;10.37;;;;;;;19.84;73.01;99699.16;5068421;28;20202;-60
2023/10/24 05:43:57;;;;;;;30.07;9.33;;;;;;;20.12;74.06;99702.50;5070453;28;20199;-60
2023/10/24 05:46:24;;;;;;;24.73;8.27;;;;;;;20.59;70.12;99702.75;5069611;28;20272;-60
2023/10/24 05:48:51;;;;;;;17.07;8.00;;;;;;;21.16;69.57;99709.19;5068720;28;20620;-60
2023/10/24 05:51:25;;;;;;;24.63;7.73;;;;;;;21.60;68.34;99726.78;5069874;28;20226;-59
2023/10/24 05:53:51;;;;;;;17.87;7.50;;;;;;;21.94;65.06;99728.09;5070116;28;20192;-61
2023/10/24 05:56:18;;;;;;;20.53;8.00;;;;;;;22.37;64.28;99724.97;5070174;28;20199;-59
2023/10/24 05:58:46;;;;;;;25.03;6.87;;;;;;;22.73;62.52;99721.31;5070286;28;20188;-59
2023/10/24 06:01:13;;;;;;;19.30;6.80;;;;;;;23.06;58.62;99741.63;5070427;28;20246;-61
2023/10/24 06:03:40;;;;;;;21.97;7.37;;;;;;;23.25;58.64;99723.78;5070587;28;20258;-61
2023/10/24 06:06:07;;;;;;;24.13;7.97;;;;;;;23.51;56.29;99723.47;5070782;28;20721;-76
2023/10/24 06:08:34;;;;;;;28.00;6.90;;;;;;;23.50;55.03;99732.69;5072258;28;20279;-72
2023/10/24 06:11:04;;;;;;;14.13;6.67;;;;;;;23.51;54.66;99739.75;5070657;28;20674;-73
2023/10/24 06:13:31;;;;;;;23.20;6.97;;;;;;;23.45;55.11;99732.72;5072711;28;20187;-72
2023/10/24 06:16:08;;;;;;;20.33;7.23;;;;;;;23.43;54.30;99732.16;5072297;28;20631;-72
2023/10/24 06:18:35;;;;;;;28.40;6.70;;;;;;;23.50;54.92;99738.13;5071489;28;20209;-73
2023/10/24 06:21:04;;;;;;;22.30;7.60;;;;;;;23.51;54.15;99739.75;5073252;28;20254;-73
2023/10/24 06:23:31;;;;;;;40.43;9.20;;;;;;;23.71;53.93;99733.44;5070319;28;20668;-72
2023/10/24 06:25:58;;;;;;;22.30;7.77;;;;;;;23.74;54.19;99730.19;5073078;28;20193;-73
2023/10/24 06:28:25;;;;;;;21.50;7.20;;;;;;;23.57;53.53;99730.50;5072347;28;20201;-73
2023/10/24 06:30:58;;;;;;;35.57;7.87;;;;;;;23.22;54.57;99735.16;5073144;28;20189;-73
2023/10/24 06:33:26;;;;;;;26.60;6.80;;;;;;;23.12;54.36;99730.50;5073038;28;20238;-73
2023/10/24 06:35:53;;;;;;;23.43;6.57;;;;;;;23.07;55.99;99719.69;5070518;28;20224;-71
2023/10/24 06:38:19;;;;;;;23.13;6.87;;;;;;;23.04;55.06;99728.38;5072734;28;20220;-71
2023/10/24 06:40:46;;;;;;;28.17;6.73;;;;;;;22.92;55.92;99719.69;5072285;28;20195;-69
2023/10/24 06:43:13;;;;;;;20.03;7.10;;;;;;;22.88;56.16;99721.31;5072296;28;20196;-74
2023/10/24 06:45:42;;;;;;;34.57;8.20;;;;;;;22.89;57.92;99709.41;5072198;28;20194;-74
2023/10/24 06:48:09;;;;;;;28.13;7.37;;;;;;;23.19;56.58;99714.00;5070262;28;20627;-75
2023/10/24 06:50:38;;;;;;;38.23;6.97;;;;;;;23.29;56.62;99716.72;5072695;28;20201;-74
2023/10/24 06:53:05;;;;;;;24.23;6.60;;;;;;;23.37;54.79;99711.56;5072422;28;20719;-74
2023/10/24 06:55:31;;;;;;;22.67;6.83;;;;;;;23.29;56.01;99703.16;5069949;28;20655;-75
2023/10/24 06:57:59;;;;;;;26.50;7.60;;;;;;;23.65;54.40;99705.53;5072500;28;20229;-76
2023/10/24 07:00:26;;;;;;;27.40;7.27;;;;;;;23.88;54.18;99699.47;5072057;28;20193;-76
2023/10/24 07:02:52;;;;;;;19.20;7.20;;;;;;;23.99;52.40;99703.00;5070442;28;20313;-75
2023/10/24 07:05:19;;;;;;;26.40;6.43;;;;;;;23.88;52.97;99696.78;5070754;28;20205;-75
2023/10/24 07:07:47;;;;;;;27.57;7.37;;;;;;;24.06;54.54;99688.03;5072322;28;20195;-77
2023/10/24 07:10:14;;;;;;;36.90;8.27;;;;;;;24.61;50.84;99704.06;5072446;28;20198;-76
2023/10/24 07:12:41;;;;;;;37.17;8.03;;;;;;;25.07;51.61;99690.09;5072294;28;20202;-77
2023/10/24 07:15:09;;;;;;;44.60;14.03;;;;;;;25.49;48.70;99701.16;5071006;28;20253;-80
2023/10/24 07:17:36;;;;;;;218.13;117.03;;;;;;;25.64;47.81;99688.19;5071424;28;20220;-68
2023/10/24 07:20:04;;;;;;;175.00;84.57;;;;;;;25.58;48.17;99686.63;5071402;28;20188;-75
2023/10/24 07:22:32;;;;;;;82.00;38.07;;;;;;;25.54;48.47;99671.16;5071878;28;20196;-73
2023/10/24 07:25:00;;;;;;;58.10;27.73;;;;;;;25.68;47.34;99683.00;5071812;28;20188;-74
2023/10/24 07:27:27;;;;;;;29.03;11.97;;;;;;;25.68;46.87;99672.91;5071253;28;20642;-72
2023/10/24 07:29:53;;;;;;;25.50;12.00;;;;;;;25.74;47.95;99673.66;5069389;28;20736;-71
2023/10/24 07:32:20;;;;;;;39.40;12.43;;;;;;;25.87;46.52;99681.94;5071752;28;20192;-72
2023/10/24 07:34:48;;;;;;;28.27;10.20;;;;;;;25.96;46.44;99679.41;5070961;28;20195;-72
2023/10/24 07:37:15;;;;;;;27.13;9.37;;;;;;;26.11;47.83;99681.94;5070231;28;20315;-74
2023/10/24 07:39:42;;;;;;;30.57;14.57;;;;;;;26.46;46.83;99678.72;5071660;28;20268;-73
2023/10/24 07:42:10;;;;;;;20.53;10.20;;;;;;;26.64;44.93;99686.09;5071019;28;20272;-72
2023/10/24 07:44:37;;;;;;;27.50;9.80;;;;;;;26.68;46.05;99676.22;5068892;28;20199;-73
2023/10/24 07:47:04;;;;;;;34.50;9.80;;;;;;;26.93;46.15;99671.19;5068717;28;20657;-72
2023/10/24 07:49:34;;;;;;;65.17;22.87;;;;;;;27.37;45.13;99662.50;5068213;28;20589;-71
2023/10/24 07:52:01;;;;;;;39.03;14.10;;;;;;;27.74;43.88;99662.34;5070039;28;20180;-72
2023/10/24 07:54:29;;;;;;;26.07;8.87;;;;;;;28.09;42.46;99658.91;5064674;28;20192;-72
2023/10/24 07:56:55;;;;;;;18.10;6.40;;;;;;;28.20;40.01;99649.34;5066843;28;20188;-73
2023/10/24 07:59:23;;;;;;;36.80;13.07;;;;;;;28.32;41.53;99646.88;5068127;28;20662;-72
2023/10/24 08:01:50;;;;;;;43.80;21.23;;;;;;;28.54;40.24;99653.22;5070577;28;20355;-72
2023/10/24 08:04:17;;;;;;;51.03;17.53;;;;;;;28.71;40.10;99649.81;5069556;28;20253;-71
2023/10/24 08:06:43;;;;;;;50.47;27.10;;;;;;;28.94;39.34;99643.22;5069770;28;20234;-72
2023/10/24 08:09:10;;;;;;;64.33;34.77;;;;;;;29.00;38.75;99633.81;5070779;28;20192;-72
2023/10/24 08:11:37;;;;;;;41.97;15.97;;;;;;;29.13;37.99;99641.09;5070779;28;20195;-72
2023/10/24 08:14:03;;;;;;;31.60;14.37;;;;;;;29.21;38.81;99632.13;5070172;28;20188;-72
2023/10/24 08:16:32;;;;;;;30.73;15.70;;;;;;;29.30;37.90;99635.72;5070323;28;20533;-71
2023/10/24 08:18:59;;;;;;;24.97;10.10;;;;;;;29.61;38.03;99631.06;5067543;28;20715;-72
2023/10/24 08:21:25;;;;;;;28.40;8.67;;;;;;;29.87;36.43;99629.19;5071057;28;20245;-72
2023/10/24 08:23:53;;;;;;;20.87;7.77;;;;;;;30.02;35.91;99626.00;5070798;28;20192;-72
2023/10/24 08:26:21;;;;;;;22.73;6.77;;;;;;;30.18;35.01;99605.25;5069747;28;20699;-72
2023/10/24 08:28:47;;;;;;;18.17;5.80;;;;;;;30.43;34.19;99618.16;5071040;28;20261;-72
2023/10/24 08:31:15;;;;;;;21.97;6.47;;;;;;;30.52;34.26;99608.00;5070365;28;20203;-72
2023/10/24 08:33:43;;;;;;;26.03;8.13;;;;;;;30.55;33.83;99607.34;5071030;28;20192;-72
2023/10/24 08:36:10;;;;;;;30.20;7.10;;;;;;;30.54;34.48;99610.41;5070570;28;20188;-71
2023/10/24 08:38:37;;;;;;;13.60;6.23;;;;;;;30.64;34.05;99601.84;5070207;28;20222;-73
2023/10/24 08:41:04;;;;;;;17.87;5.97;;;;;;;30.74;33.66;99609.78;5070772;28;20251;-71
2023/10/24 08:43:32;;;;;;;22.83;6.90;;;;;;;30.80;33.58;99605.72;5067822;28;20195;-71
2023/10/24 08:46:00;;;;;;;20.93;7.20;;;;;;;30.80;32.94;99603.78;5070663;28;20195;-72
2023/10/24 08:48:27;;;;;;;21.87;7.57;;;;;;;30.69;33.19;99608.00;5070601;28;20207;-72
2023/10/24 08:50:56;;;;;;;22.83;6.60;;;;;;;30.47;33.08;99610.91;5070504;28;20265;-72
2023/10/24 08:53:22;;;;;;;16.10;5.90;;;;;;;30.27;34.46;99606.06;5070648;28;20196;-72
2023/10/24 08:55:57;;;;;;;18.63;6.10;;;;;;;30.32;35.02;99603.16;5070361;28;20192;-72
2023/10/24 08:58:24;;;;;;;17.13;6.17;;;;;;;30.56;34.36;99610.88;5068746;28;20222;-71
2023/10/24 09:00:51;;;;;;;17.70;5.70;;;;;;;30.66;33.40;99605.06;5070797;28;20196;-72
2023/10/24 09:03:18;;;;;;;34.87;6.60;;;;;;;30.69;33.24;99602.50;5070455;28;20200;-72
2023/10/24 09:05:46;;;;;;;20.07;6.17;;;;;;;30.79;33.21;99602.16;5069789;28;20598;-73
2023/10/24 09:08:15;;;;;;;26.07;6.40;;;;;;;30.88;32.70;99589.25;5070053;28;20293;-72
2023/10/24 09:10:42;;;;;;;18.87;6.10;;;;;;;30.62;32.84;99591.19;5070191;28;20196;-72
2023/10/24 09:13:08;;;;;;;22.87;5.97;;;;;;;30.62;32.92;99591.19;5070616;28;20247;-72
2023/10/24 09:15:36;;;;;;;26.70;6.30;;;;;;;30.79;32.80;99590.41;5070150;28;20280;-72
2023/10/24 09:18:04;;;;;;;21.50;6.20;;;;;;;30.91;32.14;99583.09;5070139;28;20644;-72
2023/10/24 09:20:31;;;;;;;19.53;6.40;;;;;;;30.96;32.06;99585.69;5070446;28;20261;-72
2023/10/24 09:23:04;;;;;;;24.13;7.17;;;;;;;31.01;32.07;99579.19;5070449;28;20192;-72
2023/10/24 09:25:32;;;;;;;15.57;5.83;;;;;;;31.03;32.24;99574.97;5068274;28;20215;-73
2023/10/24 09:28:14;;;;;;;20.67;6.20;;;;;;;31.05;32.44;99567.25;5066129;28;20216;-72
2023/10/24 09:30:41;;;;;;;14.93;5.87;;;;;;;31.15;32.69;99563.34;5068358;28;20249;-70
2023/10/24 09:33:08;;;;;;;21.87;6.30;;;;;;;31.32;32.40;99561.31;5074770;28;20192;-72
2023/10/24 09:35:36;;;;;;;20.27;6.90;;;;;;;31.41;31.33;99564.84;5068098;28;20245;-71
2023/10/24 09:38:03;;;;;;;17.07;6.10;;;;;;;31.35;30.93;99555.19;5070602;28;20726;-72
2023/10/24 09:40:36;;;;;;;25.57;6.40;;;;;;;31.26;31.12;99557.16;5073978;28;20627;-73
2023/10/24 09:43:10;;;;;;;22.67;6.57;;;;;;;31.29;32.20;99540.03;5070822;28;20198;-72
2023/10/24 09:45:40;;;;;;;19.60;6.50;;;;;;;31.43;31.46;99535.09;5073894;28;20222;-73
2023/10/24 09:48:08;;;;;;;29.60;6.67;;;;;;;31.48;30.86;99532.16;5052967;28;20201;-72
2023/10/24 09:50:36;;;;;;;18.60;6.20;;;;;;;31.30;31.43;99533.41;5052874;28;20265;-72
2023/10/24 09:53:03;;;;;;;19.97;6.33;;;;;;;31.34;32.88;99531.59;5072810;28;20261;-72
2023/10/24 09:55:30;;;;;;;15.37;5.47;;;;;;;31.46;32.02;99525.41;5071666;28;20188;-72
2023/10/24 09:58:00;;;;;;;15.93;5.77;;;;;;;31.52;30.94;99516.63;5073170;28;20216;-73
2023/10/24 10:00:27;;;;;;;19.40;6.27;;;;;;;31.43;31.05;99510.41;5074178;28;20196;-72
2023/10/24 10:02:58;;;;;;;19.00;6.37;;;;;;;31.12;31.41;99507.16;5071298;28;20254;-72
2023/10/24 10:05:26;;;;;;;18.43;5.90;;;;;;;30.92;31.80;99501.59;5072077;28;20642;-73
2023/10/24 10:07:54;;;;;;;16.40;6.27;;;;;;;30.90;31.89;99501.91;5072881;28;20207;-72
2023/10/24 10:10:24;;;;;;;22.17;5.87;;;;;;;30.99;31.94;99497.19;5073082;28;20218;-72
2023/10/24 10:12:55;;;;;;;20.63;6.00;;;;;;;30.90;31.74;99490.94;5073917;28;20251;-72
2023/10/24 10:15:47;;;;;;;19.17;5.67;;;;;;;30.86;32.14;99491.94;5074324;28;20192;-72
2023/10/24 10:18:25;;;;;;;17.13;6.07;;;;;;;30.90;32.66;99488.19;5068745;28;20224;-72
2023/10/24 10:21:01;;;;;;;14.83;6.23;;;;;;;30.79;32.06;99486.94;5057757;28;20638;-74
2023/10/24 10:23:41;;;;;;;20.93;6.27;;;;;;;30.79;32.66;99481.44;5071639;28;20184;-73
2023/10/24 10:26:16;;;;;;;18.67;6.43;;;;;;;30.77;32.61;99478.25;5070775;28;20188;-74
2023/10/24 10:28:59;;;;;;;17.77;5.87;;;;;;;30.68;32.92;99474.69;5074078;28;20249;-74
2023/10/24 10:31:58;;;;;;;17.07;5.97;;;;;;;30.73;31.84;99469.06;5073937;28;20191;-72
2023/10/24 10:34:35;;;;;;;21.17;5.70;;;;;;;30.54;31.39;99473.28;5050601;28;20340;-72
2023/10/24 10:37:01;;;;;;;21.07;5.93;;;;;;;30.48;32.43;99478.16;5053885;28;20216;-74
2023/10/24 10:39:29;;;;;;;37.00;7.20;;;;;;;30.37;32.69;99468.66;5053845;28;20236;-75
2023/10/24 10:41:55;;;;;;;12.47;5.57;;;;;;;30.33;32.78;99472.38;5068644;28;20200;-74
2023/10/24 10:44:35;;;;;;;23.70;5.33;;;;;;;30.27;32.78;99458.03;5073378;28;20196;-74
2023/10/24 10:47:04;;;;;;;21.00;5.70;;;;;;;30.24;32.55;99452.38;5073216;28;20693;-74
2023/10/24 10:49:49;;;;;;;19.60;4.83;;;;;;;30.13;31.38;99456.59;5072165;28;20216;-75
2023/10/24 10:52:52;;;;;;;12.00;4.83;;;;;;;29.91;31.80;99460.31;5072763;28;20184;-73
2023/10/24 10:55:33;;;;;;;8.83;4.10;;;;;;;29.89;31.71;99457.09;5031483;28;20620;-73
2023/10/24 10:58:02;;;;;;;13.33;4.83;;;;;;;29.89;31.97;99446.16;5031134;28;20193;-73
2023/10/24 11:00:41;;;;;;;11.43;4.97;;;;;;;29.91;31.30;99443.88;5043889;28;20223;-73
2023/10/24 11:03:37;;;;;;;19.33;5.13;;;;;;;29.94;32.88;99437.75;5053160;28;20606;-76
2023/10/24 11:06:11;;;;;;;13.60;5.10;;;;;;;30.09;32.75;99439.97;5053424;28;20189;-77
2023/10/24 11:08:38;;;;;;;17.00;5.00;;;;;;;30.12;32.31;99436.59;5060042;28;20192;-73
2023/10/24 11:11:09;;;;;;;11.27;5.00;;;;;;;30.12;31.65;99435.78;5072862;28;20245;-75
2023/10/24 11:13:38;;;;;;;13.50;4.57;;;;;;;30.00;30.86;99425.47;5070104;28;20184;-74
2023/10/24 11:16:06;;;;;;;20.40;4.87;;;;;;;30.03;31.36;99426.75;5053076;28;20250;-73
2023/10/24 11:18:35;;;;;;;11.40;4.13;;;;;;;30.05;30.66;99428.03;5052781;28;20221;-74
2023/10/24 11:21:04;;;;;;;12.60;4.63;;;;;;;30.15;30.80;99427.75;5053036;28;20197;-75
2023/10/24 11:23:32;;;;;;;19.60;4.60;;;;;;;30.26;30.95;99417.25;5063475;28;20196;-78
2023/10/24 11:25:59;;;;;;;18.63;4.57;;;;;;;30.34;29.84;99417.22;5072523;28;20199;-76
2023/10/24 11:28:27;;;;;;;17.17;4.73;;;;;;;30.16;30.54;99412.09;5073110;28;20253;-76